createdAt,value
2022-08-19T00:02:09.229Z,23.35
2022-08-19T00:07:10.924Z,23.35
2022-08-19T00:12:13.438Z,23.38
2022-08-19T00:17:15.345Z,23.28
2022-08-19T00:22:18.968Z,23.34
2022-08-19T00:27:25.873Z,23.34
2022-08-19T00:32:28.695Z,23.42
2022-08-19T00:37:31.554Z,23.38
2022-08-19T00:42:34.084Z,23.37
2022-08-19T00:47:35.763Z,23.37
2022-08-19T00:52:47.236Z,23.38
2022-08-19T00:58:07.859Z,23.30
2022-08-19T01:03:20.313Z,23.28
2022-08-19T01:08:23.100Z,23.19
2022-08-19T01:13:49.097Z,23.08
2022-08-19T01:18:51.954Z,23.16
2022-08-19T01:23:53.873Z,23.07
2022-08-19T01:29:00.741Z,22.96
2022-08-19T01:34:04.364Z,22.74
2022-08-19T01:39:12.274Z,22.51
2022-08-19T01:44:18.672Z,22.31
2022-08-19T01:49:26.022Z,22.19
2022-08-19T01:54:28.589Z,22.06
2022-08-19T01:59:31.770Z,21.81
2022-08-19T02:04:34.950Z,21.72
2022-08-19T02:09:37.261Z,21.66
2022-08-19T02:14:39.062Z,21.59
2022-08-19T02:19:41.343Z,21.51
2022-08-19T02:24:43.166Z,21.46
2022-08-19T02:29:48.714Z,21.37
2022-08-19T02:34:50.484Z,21.32
2022-08-19T02:39:52.233Z,21.29
2022-08-19T02:44:57.195Z,21.30
2022-08-19T02:49:59.110Z,21.22
2022-08-19T02:55:01.929Z,21.38
2022-08-19T03:00:08.161Z,21.38
2022-08-19T03:05:11.559Z,21.50
2022-08-19T03:10:14.406Z,21.57
2022-08-19T03:15:16.419Z,21.56
2022-08-19T03:20:18.241Z,21.35
2022-08-19T03:25:19.950Z,21.46
2022-08-19T03:30:23.214Z,21.45
2022-08-19T03:35:25.653Z,21.46
2022-08-19T03:40:27.528Z,21.48
2022-08-19T03:45:30.182Z,21.41
2022-08-19T03:50:37.650Z,21.59
2022-08-19T03:55:42.970Z,21.54
2022-08-19T04:00:44.738Z,21.57
2022-08-19T04:05:47.990Z,21.60
2022-08-19T04:10:50.529Z,21.77
2022-08-19T04:15:52.256Z,21.59
2022-08-19T04:20:53.991Z,21.62
2022-08-19T04:25:56.762Z,21.71
2022-08-19T04:30:59.567Z,21.71
2022-08-19T04:36:01.297Z,21.72
2022-08-19T04:41:24.916Z,21.63
2022-08-19T04:46:39.597Z,21.65
2022-08-19T04:51:46.851Z,21.49
2022-08-19T04:56:50.603Z,21.66
2022-08-19T05:01:52.366Z,21.72
2022-08-19T05:06:54.248Z,21.76
2022-08-19T05:12:04.088Z,21.87
2022-08-19T05:17:26.026Z,21.73
2022-08-19T05:22:33.442Z,21.73
2022-08-19T05:27:35.845Z,21.79
2022-08-19T05:32:38.565Z,21.88
2022-08-19T05:37:41.633Z,22.00
2022-08-19T05:42:43.493Z,22.21
2022-08-19T05:47:46.018Z,22.33
2022-08-19T05:52:54.464Z,22.51
2022-08-19T05:57:56.265Z,22.55
2022-08-19T06:03:00.555Z,22.71
2022-08-19T06:08:11.330Z,22.78
2022-08-19T06:13:13.173Z,22.70
2022-08-19T06:18:17.570Z,22.80
2022-08-19T06:23:21.197Z,22.93
2022-08-19T06:28:26.034Z,23.32
2022-08-19T06:33:27.755Z,23.45
2022-08-19T06:38:29.874Z,23.44
2022-08-19T06:43:31.708Z,23.29
2022-08-19T06:48:45.301Z,23.22
2022-08-19T06:53:54.998Z,23.13
2022-08-19T06:58:59.295Z,22.93
2022-08-19T07:04:02.490Z,22.87
2022-08-19T07:09:14.748Z,22.73
2022-08-19T07:14:28.497Z,22.72
2022-08-19T07:19:30.746Z,22.79
2022-08-19T07:24:34.231Z,22.82
2022-08-19T07:29:37.660Z,23.03
2022-08-19T07:34:40.094Z,23.12
2022-08-19T07:39:41.945Z,22.98
2022-08-19T07:44:50.395Z,23.02
2022-08-19T07:49:53.334Z,23.05
2022-08-19T07:54:55.032Z,22.98
2022-08-19T07:59:57.156Z,23.02
2022-08-19T08:05:17.232Z,22.98
2022-08-19T08:10:21.273Z,22.99
2022-08-19T08:15:25.126Z,22.97
2022-08-19T08:20:27.034Z,22.91
2022-08-19T08:25:29.323Z,22.97
2022-08-19T08:30:36.771Z,23.06
2022-08-19T08:35:42.700Z,22.99
2022-08-19T08:40:51.859Z,22.99
2022-08-19T08:46:31.482Z,22.95
2022-08-19T08:51:56.208Z,23.06
2022-08-19T08:57:07.353Z,22.99
2022-08-19T09:02:12.615Z,23.09
2022-08-19T09:08:00.554Z,23.10
2022-08-19T09:13:43.322Z,22.92
2022-08-19T09:18:54.090Z,22.96
2022-08-19T09:23:56.497Z,23.07
2022-08-19T09:29:00.599Z,23.13
2022-08-19T09:34:04.682Z,23.33
2022-08-19T09:39:16.114Z,23.40
2022-08-19T09:44:21.279Z,23.48
2022-08-19T09:49:24.382Z,23.62
2022-08-19T09:54:27.638Z,23.81
2022-08-19T09:59:30.510Z,23.88
2022-08-19T10:04:53.447Z,23.61
2022-08-19T10:09:55.514Z,23.57
2022-08-19T10:14:58.000Z,23.55
2022-08-19T10:19:59.834Z,23.73
2022-08-19T10:25:01.914Z,23.86
2022-08-19T10:30:04.865Z,24.11
2022-08-19T10:35:11.932Z,24.13
2022-08-19T10:40:23.613Z,24.04
2022-08-19T10:45:26.863Z,23.92
2022-08-19T10:50:48.540Z,23.68
2022-08-19T10:56:09.020Z,23.60
2022-08-19T11:01:11.022Z,23.48
2022-08-19T11:06:13.169Z,23.53
2022-08-19T11:11:15.179Z,23.47
2022-08-19T11:16:23.380Z,23.57
2022-08-19T11:21:27.916Z,23.69
2022-08-19T11:26:32.872Z,23.66
2022-08-19T11:31:37.170Z,23.70
2022-08-19T11:36:43.790Z,23.50
2022-08-19T11:41:46.187Z,23.59
2022-08-19T11:46:48.201Z,23.42
2022-08-19T11:51:51.606Z,23.47
2022-08-19T11:56:55.556Z,23.46
2022-08-19T12:02:00.139Z,23.36
2022-08-19T12:07:02.795Z,23.57
2022-08-19T12:12:07.953Z,23.57
2022-08-19T12:17:10.425Z,23.72
2022-08-19T12:22:12.280Z,23.72
2022-08-19T12:27:14.086Z,23.77
2022-08-19T12:32:34.699Z,23.78
2022-08-19T12:37:36.489Z,23.90
2022-08-19T12:42:42.401Z,24.18
2022-08-19T12:47:45.372Z,24.26
2022-08-19T12:52:49.717Z,24.31
2022-08-19T12:57:51.762Z,24.38
2022-08-19T13:02:54.050Z,24.51
2022-08-19T13:08:00.378Z,24.69
2022-08-19T13:13:08.538Z,24.83
2022-08-19T13:18:11.589Z,24.74
2022-08-19T13:23:13.442Z,24.44
2022-08-19T13:28:15.412Z,24.36
2022-08-19T13:33:18.815Z,24.40
2022-08-19T13:38:26.542Z,24.38
2022-08-19T13:43:28.301Z,24.40
2022-08-19T13:48:30.028Z,24.43
2022-08-19T13:53:31.862Z,24.49
2022-08-19T13:58:33.992Z,24.44
2022-08-19T14:03:37.898Z,24.51
2022-08-19T14:08:46.404Z,24.40
2022-08-19T14:13:52.349Z,24.40
2022-08-19T14:18:54.425Z,24.41
2022-08-19T14:23:59.138Z,24.44
2022-08-19T14:29:02.399Z,24.26
2022-08-19T14:34:04.125Z,24.19
2022-08-19T14:39:06.325Z,24.21
2022-08-19T14:44:10.959Z,24.05
2022-08-19T14:49:13.041Z,24.03
2022-08-19T14:54:15.337Z,24.10
2022-08-19T14:59:17.966Z,24.25
2022-08-19T15:04:19.828Z,24.25
2022-08-19T15:09:21.540Z,24.22
2022-08-19T15:14:23.224Z,24.21
2022-08-19T15:19:24.924Z,24.07
2022-08-19T15:24:28.528Z,24.04
2022-08-19T15:29:30.345Z,23.90
2022-08-19T15:34:33.462Z,23.81
2022-08-19T15:39:35.262Z,23.83
2022-08-19T15:44:37.023Z,23.67
2022-08-19T15:49:47.308Z,23.53
2022-08-19T15:54:49.138Z,23.39
2022-08-19T16:00:09.226Z,23.23
2022-08-19T16:05:40.578Z,23.29
2022-08-19T16:10:42.306Z,23.22
2022-08-19T16:15:44.909Z,23.14
2022-08-19T16:20:46.614Z,23.14
2022-08-19T16:25:48.397Z,23.08
2022-08-19T16:30:51.157Z,23.20
2022-08-19T16:35:58.457Z,22.96
2022-08-19T16:41:02.196Z,23.06
2022-08-19T16:46:03.987Z,22.97
2022-08-19T16:51:08.517Z,23.14
2022-08-19T16:56:10.841Z,23.02
2022-08-19T17:01:12.647Z,22.76
2022-08-19T17:06:29.424Z,22.82
2022-08-19T17:11:35.566Z,22.84
2022-08-19T17:16:38.133Z,22.90
2022-08-19T17:21:40.707Z,22.83
2022-08-19T17:26:42.400Z,22.74
2022-08-19T17:31:44.149Z,22.73
2022-08-19T17:36:45.993Z,22.77
2022-08-19T17:41:47.714Z,22.69
2022-08-19T17:46:49.425Z,22.73
2022-08-19T17:51:52.212Z,22.54
2022-08-19T17:56:54.186Z,22.56
2022-08-19T18:01:56.004Z,22.52
2022-08-19T18:06:58.069Z,22.46
2022-08-19T18:12:00.456Z,22.49
2022-08-19T18:17:12.992Z,22.50
2022-08-19T18:22:36.759Z,22.38
2022-08-19T18:27:39.093Z,22.44
2022-08-19T18:32:42.383Z,22.43
2022-08-19T18:37:45.961Z,22.45
2022-08-19T18:43:22.496Z,22.47
2022-08-19T18:48:43.320Z,22.44
2022-08-19T18:53:48.626Z,22.38
2022-08-19T18:58:50.345Z,22.08
2022-08-19T19:03:55.514Z,22.10
2022-08-19T19:08:58.314Z,22.09
2022-08-19T19:14:03.199Z,22.16
2022-08-19T19:19:07.638Z,22.16
2022-08-19T19:24:09.489Z,22.23
2022-08-19T19:29:12.572Z,22.20
2022-08-19T19:34:29.103Z,22.25
2022-08-19T19:39:46.194Z,22.18
2022-08-19T19:44:54.616Z,22.24
2022-08-19T19:50:14.386Z,22.30
2022-08-19T19:55:18.405Z,22.27
2022-08-19T20:00:22.004Z,22.26
2022-08-19T20:05:24.958Z,22.22
2022-08-19T20:10:27.182Z,22.22
2022-08-19T20:15:32.008Z,22.17
2022-08-19T20:20:34.280Z,22.11
2022-08-19T20:25:39.222Z,22.14
2022-08-19T20:30:46.590Z,22.12
2022-08-19T20:35:49.858Z,22.02
2022-08-19T20:40:52.689Z,22.07
2022-08-19T20:45:55.852Z,22.11
2022-08-19T20:50:58.151Z,22.07
2022-08-19T20:56:00.287Z,22.04
2022-08-19T21:01:04.714Z,21.97
2022-08-19T21:06:07.074Z,21.93
2022-08-19T21:11:10.616Z,21.88
2022-08-19T21:16:12.524Z,21.86
2022-08-19T21:21:14.470Z,21.77
2022-08-19T21:26:16.481Z,21.73
2022-08-19T21:31:18.303Z,21.65
2022-08-19T21:36:20.339Z,21.68
2022-08-19T21:41:22.648Z,21.80
2022-08-19T21:46:24.401Z,21.61
2022-08-19T21:51:26.237Z,21.53
2022-08-19T21:56:28.574Z,21.62
2022-08-19T22:01:30.336Z,21.69
2022-08-19T22:06:32.100Z,21.70
2022-08-19T22:11:34.514Z,21.67
2022-08-19T22:16:36.209Z,21.65
2022-08-19T22:21:40.102Z,21.68
2022-08-19T22:26:42.820Z,21.50
2022-08-19T22:31:44.950Z,21.47
2022-08-19T22:36:46.653Z,21.45
2022-08-19T22:41:49.358Z,21.28
2022-08-19T22:46:51.076Z,21.24
2022-08-19T22:52:11.169Z,21.21
2022-08-19T22:57:14.140Z,21.26
2022-08-19T23:02:39.601Z,21.19
2022-08-19T23:07:57.217Z,21.30
2022-08-19T23:13:00.145Z,21.29
2022-08-19T23:18:05.532Z,21.31
2022-08-19T23:23:14.185Z,21.25
2022-08-19T23:28:34.154Z,21.20
2022-08-19T23:33:50.835Z,21.31
2022-08-19T23:38:53.754Z,21.32
2022-08-19T23:43:55.587Z,21.29
2022-08-19T23:48:57.366Z,21.19
2022-08-19T23:53:59.123Z,21.13
2022-08-19T23:59:00.848Z,21.23
